createdAt,value
2019-02-12T00:01:34.083Z,52.00
2019-02-12T00:04:28.581Z,52.10
2019-02-12T00:07:23.028Z,52.20
2019-02-12T00:10:18.012Z,52.20
2019-02-12T00:13:12.558Z,52.20
2019-02-12T00:16:07.454Z,52.30
2019-02-12T00:19:02.220Z,52.30
2019-02-12T00:21:57.137Z,52.30
2019-02-12T00:24:52.162Z,52.40
2019-02-12T00:27:46.728Z,52.40
2019-02-12T00:30:41.561Z,52.40
2019-02-12T00:33:36.320Z,52.10
2019-02-12T00:36:30.932Z,51.70
2019-02-12T00:39:25.887Z,51.20
2019-02-12T00:42:20.531Z,51.10
2019-02-12T00:45:15.334Z,51.00
2019-02-12T00:48:10.216Z,50.80
2019-02-12T00:51:04.958Z,50.70
2019-02-12T00:53:59.652Z,50.50
2019-02-12T00:56:54.409Z,50.40
2019-02-12T00:59:49.105Z,50.40
2019-02-12T01:02:43.685Z,50.40
2019-02-12T01:05:38.251Z,50.40
2019-02-12T01:08:33.296Z,50.50
2019-02-12T01:11:28.311Z,50.40
2019-02-12T01:14:23.260Z,50.50
2019-02-12T01:17:18.316Z,50.60
2019-02-12T01:20:15.052Z,50.60
2019-02-12T01:23:10.653Z,50.70
2019-02-12T01:26:08.952Z,50.70
2019-02-12T01:29:04.833Z,50.70
2019-02-12T01:32:08.979Z,50.70
2019-02-12T01:35:04.756Z,50.80
2019-02-12T01:38:06.574Z,50.80
2019-02-12T01:41:04.944Z,50.80
2019-02-12T01:44:06.532Z,50.80
2019-02-12T01:47:03.015Z,51.00
2019-02-12T01:50:01.342Z,50.80
2019-02-12T01:52:59.012Z,51.00
2019-02-12T01:56:13.558Z,51.20
2019-02-12T01:59:29.067Z,51.20
2019-02-12T02:02:24.585Z,51.20
2019-02-12T02:05:19.158Z,51.20
2019-02-12T02:08:16.025Z,51.20
2019-02-12T02:11:37.674Z,51.30
2019-02-12T02:15:07.603Z,51.30
2019-02-12T02:18:27.545Z,51.30
2019-02-12T02:21:44.795Z,51.20
2019-02-12T02:24:48.467Z,51.10
2019-02-12T02:28:11.013Z,51.00
2019-02-12T02:31:29.966Z,51.10
2019-02-12T02:48:03.709Z,51.10
2019-02-12T02:51:23.630Z,51.10
2019-02-12T03:04:30.772Z,50.70
2019-02-12T03:11:08.230Z,51.10
2019-02-12T03:14:38.819Z,51.00
2019-02-12T03:43:38.910Z,50.00
2019-02-12T03:46:45.285Z,49.80
2019-02-12T03:50:02.026Z,49.80
2019-02-12T03:53:04.115Z,49.70
2019-02-12T03:56:21.271Z,49.70
2019-02-12T03:59:35.670Z,49.80
2019-02-12T04:02:35.465Z,49.80
2019-02-12T04:05:33.623Z,49.60
2019-02-12T04:09:08.896Z,49.30
2019-02-12T04:11:51.840Z,48.90
2019-02-12T04:15:14.104Z,48.60
2019-02-12T04:34:31.386Z,47.60
2019-02-12T04:37:29.830Z,47.30
2019-02-12T04:40:29.267Z,47.10
2019-02-12T04:43:24.976Z,46.90
2019-02-12T04:46:20.427Z,46.70
2019-02-12T04:49:15.891Z,46.40
2019-02-12T04:52:15.117Z,46.20
2019-02-12T04:55:07.654Z,45.90
2019-02-12T04:58:10.228Z,45.60
2019-02-12T05:01:14.834Z,45.40
2019-02-12T05:04:13.677Z,45.10
2019-02-12T05:07:08.794Z,44.70
2019-02-12T05:10:03.909Z,44.30
2019-02-12T05:12:59.788Z,44.10
2019-02-12T05:16:08.595Z,43.90
2019-02-12T05:19:13.172Z,43.60
2019-02-12T05:22:19.021Z,43.10
2019-02-12T05:25:16.011Z,42.70
2019-02-12T05:28:17.867Z,42.60
2019-02-12T05:31:44.401Z,42.30
2019-02-12T05:35:35.525Z,42.10
2019-02-12T05:38:19.579Z,42.20
2019-02-12T05:41:28.313Z,42.20
2019-02-12T05:44:25.009Z,42.10
2019-02-12T05:47:24.795Z,42.10
2019-02-12T05:50:23.917Z,41.70
2019-02-12T05:53:39.915Z,41.40
2019-02-12T05:56:35.978Z,41.20
2019-02-12T05:59:33.208Z,40.90
2019-02-12T06:02:30.067Z,40.70
2019-02-12T06:05:35.760Z,40.30
2019-02-12T06:08:31.293Z,40.40
2019-02-12T06:11:52.553Z,40.40
2019-02-12T06:15:00.556Z,40.30
2019-02-12T06:18:11.447Z,40.10
2019-02-12T06:24:16.550Z,39.80
2019-02-12T06:30:23.079Z,39.70
2019-02-12T06:34:07.690Z,39.50
2019-02-12T06:37:03.995Z,39.20
2019-02-12T06:39:59.304Z,39.00
2019-02-12T06:42:58.032Z,38.80
2019-02-12T06:46:02.614Z,38.80
2019-02-12T06:49:09.469Z,38.60
2019-02-12T06:52:07.470Z,38.40
2019-02-12T06:55:05.662Z,38.20
2019-02-12T06:58:03.913Z,38.00
2019-02-12T07:01:02.713Z,36.70
2019-02-12T07:04:07.595Z,36.80
2019-02-12T07:07:46.671Z,36.80
2019-02-12T07:10:54.643Z,36.60
2019-02-12T07:14:30.618Z,36.40
2019-02-12T07:18:11.899Z,36.20
2019-02-12T07:26:10.774Z,36.30
2019-02-12T07:30:28.491Z,36.20
2019-02-12T07:40:37.317Z,35.40
2019-02-12T07:44:28.558Z,35.00
2019-02-12T07:48:12.141Z,34.60
2019-02-12T07:51:41.898Z,34.40
2019-02-12T08:03:37.184Z,34.30
2019-02-12T08:06:58.470Z,34.30
2019-02-12T08:10:47.981Z,34.70
2019-02-12T08:14:21.441Z,34.40
2019-02-12T08:18:15.864Z,33.80
2019-02-12T08:21:44.959Z,33.60
2019-02-12T08:25:21.981Z,33.30
2019-02-12T08:29:11.090Z,33.00
2019-02-12T08:32:39.355Z,32.70
2019-02-12T08:36:46.903Z,32.80
2019-02-12T08:39:55.167Z,33.10
2019-02-12T08:43:06.051Z,33.40
2019-02-12T08:46:31.900Z,32.80
2019-02-12T08:50:36.784Z,32.20
2019-02-12T08:54:14.803Z,32.50
2019-02-12T08:57:56.678Z,32.40
